createdAt,value
2022-08-22T00:03:31.409Z,14.16
2022-08-22T00:04:06.797Z,14.16
2022-08-22T00:05:06.806Z,14.13
2022-08-22T00:06:06.772Z,14.12
2022-08-22T00:07:06.768Z,14.11
2022-08-22T00:08:06.791Z,14.09
2022-08-22T00:09:06.766Z,14.11
2022-08-22T00:10:06.735Z,14.11
2022-08-22T00:11:06.725Z,14.02
2022-08-22T00:12:06.710Z,14.01
2022-08-22T00:13:06.703Z,14.02
2022-08-22T00:14:06.717Z,14.02
2022-08-22T00:15:06.706Z,14.01
2022-08-22T00:16:06.675Z,14.02
2022-08-22T00:17:06.661Z,14.04
2022-08-22T00:18:06.655Z,14.05
2022-08-22T00:19:06.645Z,14.02
2022-08-22T00:20:06.645Z,13.98
2022-08-22T00:21:06.619Z,13.94
2022-08-22T00:22:06.605Z,13.93
2022-08-22T00:23:06.596Z,13.88
2022-08-22T00:24:06.582Z,13.87
2022-08-22T00:25:06.574Z,13.86
2022-08-22T00:26:06.611Z,13.84
2022-08-22T00:27:06.564Z,13.81
2022-08-22T00:28:06.539Z,13.83
2022-08-22T00:29:06.569Z,13.83
2022-08-22T00:30:06.523Z,13.83
2022-08-22T00:31:06.514Z,13.83
2022-08-22T00:32:06.519Z,13.79
2022-08-22T00:33:06.504Z,13.75
2022-08-22T00:34:06.487Z,13.71
2022-08-22T00:35:06.474Z,13.69
2022-08-22T00:36:06.519Z,13.68
2022-08-22T00:37:06.456Z,13.69
2022-08-22T00:38:06.434Z,13.68
2022-08-22T00:39:06.436Z,13.69
2022-08-22T00:40:06.434Z,13.65
2022-08-22T00:41:06.443Z,13.62
2022-08-22T00:42:06.422Z,13.55
2022-08-22T00:43:06.412Z,13.51
2022-08-22T00:44:06.381Z,13.54
2022-08-22T00:45:06.367Z,13.55
2022-08-22T00:46:06.351Z,13.48
2022-08-22T00:47:06.347Z,13.43
2022-08-22T00:48:06.333Z,13.39
2022-08-22T00:49:06.345Z,13.35
2022-08-22T00:50:06.310Z,13.31
2022-08-22T00:51:06.300Z,13.25
2022-08-22T00:52:06.287Z,13.29
2022-08-22T00:53:06.280Z,13.27
2022-08-22T00:54:06.876Z,13.21
2022-08-22T00:55:06.266Z,13.22
2022-08-22T00:56:06.248Z,13.24
2022-08-22T00:57:06.264Z,13.25
2022-08-22T00:58:06.242Z,13.27
2022-08-22T00:59:10.620Z,13.24
2022-08-22T01:00:06.210Z,13.25
2022-08-22T01:01:06.234Z,13.22
2022-08-22T01:02:06.185Z,13.19
2022-08-22T01:03:06.194Z,13.21
2022-08-22T01:04:06.159Z,13.19
2022-08-22T01:05:06.161Z,13.25
2022-08-22T01:06:06.145Z,13.25
2022-08-22T01:07:06.130Z,13.27
2022-08-22T01:08:06.114Z,13.27
2022-08-22T01:09:06.138Z,13.28
2022-08-22T01:10:06.099Z,13.29
2022-08-22T01:11:06.114Z,13.31
2022-08-22T01:12:06.072Z,13.32
2022-08-22T01:13:06.095Z,13.35
2022-08-22T01:14:06.047Z,13.35
2022-08-22T01:15:06.045Z,13.29
2022-08-22T01:16:06.030Z,13.22
2022-08-22T01:17:06.044Z,13.16
2022-08-22T01:18:06.010Z,13.14
2022-08-22T01:19:06.009Z,13.14
2022-08-22T01:20:05.996Z,13.16
2022-08-22T01:21:05.984Z,13.17
2022-08-22T01:22:05.971Z,13.21
2022-08-22T01:23:05.985Z,13.16
2022-08-22T01:24:05.947Z,13.09
2022-08-22T01:25:05.940Z,13.04
2022-08-22T01:26:05.925Z,12.99
2022-08-22T01:27:05.915Z,12.95
2022-08-22T01:28:05.947Z,12.94
2022-08-22T01:29:05.908Z,12.92
2022-08-22T01:30:05.897Z,12.88
2022-08-22T01:31:05.899Z,12.85
2022-08-22T01:32:05.860Z,12.85
2022-08-22T01:33:05.873Z,12.85
2022-08-22T01:34:05.860Z,12.84
2022-08-22T01:35:05.838Z,12.84
2022-08-22T01:36:05.826Z,12.88
2022-08-22T01:37:05.812Z,12.91
2022-08-22T01:38:05.809Z,12.95
2022-08-22T01:39:05.790Z,12.95
2022-08-22T01:40:05.825Z,12.98
2022-08-22T01:41:05.767Z,12.96
2022-08-22T01:42:05.759Z,12.98
2022-08-22T01:43:05.748Z,12.95
2022-08-22T01:44:05.741Z,12.94
2022-08-22T01:45:05.728Z,12.95
2022-08-22T01:46:05.727Z,12.92
2022-08-22T01:47:05.714Z,12.89
2022-08-22T01:48:05.691Z,12.89
2022-08-22T01:49:05.688Z,12.85
2022-08-22T01:50:05.682Z,12.87
2022-08-22T01:51:05.683Z,12.79
2022-08-22T01:52:05.667Z,12.73
2022-08-22T01:53:05.642Z,12.73
2022-08-22T01:54:05.630Z,12.73
2022-08-22T01:55:05.618Z,12.77
2022-08-22T01:56:05.610Z,12.74
2022-08-22T01:57:05.631Z,12.71
2022-08-22T01:58:05.611Z,12.69
2022-08-22T01:59:05.581Z,12.67
2022-08-22T02:00:05.577Z,12.62
2022-08-22T02:01:05.600Z,12.61
2022-08-22T02:02:05.577Z,12.62
2022-08-22T02:03:05.543Z,12.61
2022-08-22T02:04:05.523Z,12.62
2022-08-22T02:05:05.523Z,12.63
2022-08-22T02:06:05.502Z,12.61
2022-08-22T02:07:05.530Z,12.59
2022-08-22T02:08:05.481Z,12.52
2022-08-22T02:09:05.493Z,12.49
2022-08-22T02:10:05.475Z,12.49
2022-08-22T02:11:05.453Z,12.51
2022-08-22T02:12:05.443Z,12.49
2022-08-22T02:13:05.477Z,12.49
2022-08-22T02:14:05.421Z,12.46
2022-08-22T02:15:05.418Z,12.41
2022-08-22T02:16:05.412Z,12.36
2022-08-22T02:17:05.403Z,12.31
2022-08-22T02:18:05.396Z,12.34
2022-08-22T02:19:05.373Z,12.36
2022-08-22T02:20:05.369Z,12.37
2022-08-22T02:21:05.345Z,12.40
2022-08-22T02:22:05.343Z,12.40
2022-08-22T02:23:05.336Z,12.34
2022-08-22T02:24:05.344Z,12.29
2022-08-22T02:25:08.963Z,12.26
2022-08-22T02:26:05.293Z,12.22
2022-08-22T02:27:05.280Z,12.21
2022-08-22T02:28:05.273Z,12.18
2022-08-22T02:29:05.256Z,12.19
2022-08-22T02:30:05.291Z,12.21
2022-08-22T02:31:05.234Z,12.22
2022-08-22T02:32:05.259Z,12.19
2022-08-22T02:33:05.214Z,12.18
2022-08-22T02:34:05.207Z,12.18
2022-08-22T02:35:05.191Z,12.21
2022-08-22T02:36:05.186Z,12.23
2022-08-22T02:37:05.172Z,12.21
2022-08-22T02:38:05.205Z,12.22
2022-08-22T02:39:05.153Z,12.23
2022-08-22T02:40:05.241Z,12.19
2022-08-22T02:41:05.131Z,12.19
2022-08-22T02:42:05.127Z,12.22
2022-08-22T02:43:05.107Z,12.18
2022-08-22T02:44:05.135Z,12.15
2022-08-22T02:45:05.094Z,12.13
2022-08-22T02:46:05.080Z,12.08
2022-08-22T02:47:05.075Z,12.05
2022-08-22T02:48:05.069Z,12.00
2022-08-22T02:49:05.043Z,11.93
2022-08-22T02:50:05.072Z,11.87
2022-08-22T02:51:05.024Z,11.82
2022-08-22T02:52:05.019Z,11.79
2022-08-22T02:53:05.009Z,11.77
2022-08-22T02:54:05.000Z,11.77
2022-08-22T02:55:04.988Z,11.74
2022-08-22T02:56:05.126Z,11.75
2022-08-22T02:57:04.962Z,11.75
2022-08-22T02:58:04.952Z,11.78
2022-08-22T02:59:04.939Z,11.84
2022-08-22T03:00:04.952Z,11.87
2022-08-22T03:01:05.005Z,11.85
2022-08-22T03:02:04.930Z,11.88
2022-08-22T03:03:04.899Z,11.93
2022-08-22T03:04:04.887Z,11.90
2022-08-22T03:05:04.872Z,11.88
2022-08-22T03:06:04.886Z,11.81
2022-08-22T03:07:04.888Z,11.81
2022-08-22T03:08:04.849Z,11.79
2022-08-22T03:09:04.838Z,11.75
2022-08-22T03:10:04.830Z,11.72
2022-08-22T03:11:04.811Z,11.70
2022-08-22T03:12:04.804Z,11.72
2022-08-22T03:13:04.814Z,11.70
2022-08-22T03:14:04.782Z,11.72
2022-08-22T03:15:04.767Z,11.74
2022-08-22T03:16:04.768Z,11.72
2022-08-22T03:17:04.753Z,11.74
2022-08-22T03:18:04.761Z,11.74
2022-08-22T03:19:04.757Z,11.74
2022-08-22T03:20:04.721Z,11.74
2022-08-22T03:21:04.709Z,11.74
2022-08-22T03:22:04.707Z,11.74
2022-08-22T03:23:04.732Z,11.74
2022-08-22T03:24:04.704Z,11.72
2022-08-22T03:25:04.682Z,11.74
2022-08-22T03:26:07.675Z,11.74
2022-08-22T03:27:04.641Z,11.74
2022-08-22T03:28:04.663Z,11.70
2022-08-22T03:29:04.623Z,11.66
2022-08-22T03:30:04.613Z,11.64
2022-08-22T03:31:04.612Z,11.63
2022-08-22T03:32:04.593Z,11.62
2022-08-22T03:33:04.577Z,11.62
2022-08-22T03:34:04.600Z,11.59
2022-08-22T03:35:04.564Z,11.56
2022-08-22T03:36:04.552Z,11.54
2022-08-22T03:37:04.535Z,11.53
2022-08-22T03:38:04.557Z,11.53
2022-08-22T03:39:14.949Z,11.49
2022-08-22T03:40:04.650Z,11.46
2022-08-22T03:41:04.492Z,11.44
2022-08-22T03:42:04.488Z,11.51
2022-08-22T03:43:04.467Z,11.53
2022-08-22T03:44:04.471Z,11.54
2022-08-22T03:45:07.052Z,11.54
2022-08-22T03:46:04.487Z,11.49
2022-08-22T03:47:04.432Z,11.46
2022-08-22T03:48:04.430Z,11.45
2022-08-22T03:49:04.407Z,11.42
2022-08-22T03:50:04.406Z,11.39
2022-08-22T03:51:04.387Z,11.36
2022-08-22T03:52:04.399Z,11.35
2022-08-22T03:53:04.366Z,11.31
2022-08-22T03:54:04.371Z,11.30
2022-08-22T03:55:04.344Z,11.27
2022-08-22T03:56:04.281Z,11.28
2022-08-22T03:57:04.274Z,11.31
2022-08-22T03:58:04.285Z,11.36
2022-08-22T03:59:09.942Z,11.39
2022-08-22T04:00:04.245Z,11.39
2022-08-22T04:01:04.265Z,11.42
2022-08-22T04:02:04.220Z,11.42
2022-08-22T04:03:04.218Z,11.45
2022-08-22T04:04:04.228Z,11.49
2022-08-22T04:05:04.206Z,11.49
2022-08-22T04:06:04.187Z,11.53
2022-08-22T04:07:05.885Z,11.54
2022-08-22T04:08:04.160Z,11.51
2022-08-22T04:09:04.270Z,11.49
2022-08-22T04:10:04.133Z,11.51
2022-08-22T04:11:04.118Z,11.51
2022-08-22T04:12:04.131Z,11.51
2022-08-22T04:13:04.116Z,11.51
2022-08-22T04:14:04.092Z,11.46
2022-08-22T04:15:04.106Z,11.42
2022-08-22T04:16:04.099Z,11.38
2022-08-22T04:17:04.055Z,11.33
2022-08-22T04:18:04.050Z,11.36
2022-08-22T04:19:04.063Z,11.39
2022-08-22T04:20:04.032Z,11.38
2022-08-22T04:21:04.036Z,11.30
2022-08-22T04:22:04.004Z,11.33
2022-08-22T04:23:04.013Z,11.35
2022-08-22T04:24:04.000Z,11.31
2022-08-22T04:25:07.752Z,11.27
2022-08-22T04:26:04.443Z,11.24
2022-08-22T04:27:03.982Z,11.26
2022-08-22T04:28:03.966Z,11.27
2022-08-22T04:29:03.931Z,11.28
2022-08-22T04:30:03.942Z,11.28
2022-08-22T04:31:03.923Z,11.26
2022-08-22T04:32:03.923Z,11.30
2022-08-22T04:33:03.891Z,11.27
2022-08-22T04:34:03.887Z,11.27
2022-08-22T04:35:03.871Z,11.26
2022-08-22T04:36:03.856Z,11.23
2022-08-22T04:37:03.845Z,11.23
2022-08-22T04:38:03.865Z,11.21
2022-08-22T04:39:03.844Z,11.23
2022-08-22T04:40:03.896Z,11.26
2022-08-22T04:41:04.674Z,11.26
2022-08-22T04:42:30.765Z,11.26
2022-08-22T04:43:03.835Z,11.24
2022-08-22T04:44:03.823Z,11.26
2022-08-22T04:45:03.763Z,11.26
2022-08-22T04:46:03.756Z,11.27
2022-08-22T04:47:03.765Z,11.28
2022-08-22T04:48:03.737Z,11.30
2022-08-22T04:49:03.741Z,11.30
2022-08-22T04:50:03.755Z,11.35
2022-08-22T04:51:03.699Z,11.39
2022-08-22T04:52:03.694Z,11.42
2022-08-22T04:53:03.682Z,11.42
2022-08-22T04:54:03.692Z,11.41
2022-08-22T04:55:03.684Z,11.42
2022-08-22T04:56:07.350Z,11.42
2022-08-22T04:57:03.653Z,11.46
2022-08-22T04:58:06.530Z,11.46
2022-08-22T04:59:03.621Z,11.53
2022-08-22T05:00:03.632Z,11.57
2022-08-22T05:01:03.591Z,11.59
2022-08-22T05:02:03.637Z,11.63
2022-08-22T05:03:03.566Z,11.64
2022-08-22T05:04:03.588Z,11.67
2022-08-22T05:05:03.568Z,11.70
2022-08-22T05:06:03.541Z,11.75
2022-08-22T05:07:03.527Z,11.77
2022-08-22T05:08:03.530Z,11.82
2022-08-22T05:09:03.506Z,11.85
2022-08-22T05:10:09.254Z,11.93
2022-08-22T05:11:03.505Z,11.98
2022-08-22T05:12:03.511Z,12.03
2022-08-22T05:13:03.463Z,12.05
2022-08-22T05:14:03.455Z,12.07
2022-08-22T05:15:03.451Z,12.12
2022-08-22T05:16:03.439Z,12.13
2022-08-22T05:17:03.437Z,12.19
2022-08-22T05:18:03.451Z,12.23
2022-08-22T05:19:03.396Z,12.26
2022-08-22T05:20:03.391Z,12.33
2022-08-22T05:21:03.428Z,12.36
2022-08-22T05:22:03.372Z,12.38
2022-08-22T05:23:05.921Z,12.41
2022-08-22T05:24:03.351Z,12.48
2022-08-22T05:25:03.339Z,12.52
2022-08-22T05:26:03.326Z,12.56
2022-08-22T05:27:03.342Z,12.61
2022-08-22T05:28:03.328Z,12.66
2022-08-22T05:29:03.292Z,12.70
2022-08-22T05:30:03.350Z,12.76
2022-08-22T05:31:03.272Z,12.81
2022-08-22T05:32:03.280Z,12.87
2022-08-22T05:33:03.276Z,12.89
2022-08-22T05:34:03.250Z,12.94
2022-08-22T05:35:03.226Z,12.99
2022-08-22T05:36:03.247Z,13.06
2022-08-22T05:37:03.206Z,13.12
2022-08-22T05:38:03.219Z,13.17
2022-08-22T05:39:03.191Z,13.25
2022-08-22T05:40:03.256Z,13.28
2022-08-22T05:41:03.174Z,13.35
2022-08-22T05:42:03.165Z,13.39
2022-08-22T05:43:03.169Z,13.46
2022-08-22T05:44:03.168Z,13.50
2022-08-22T05:45:03.139Z,13.55
2022-08-22T05:46:03.142Z,13.65
2022-08-22T05:47:03.105Z,13.71
2022-08-22T05:48:03.093Z,13.76
2022-08-22T05:49:03.090Z,13.84
2022-08-22T05:50:03.096Z,13.90
2022-08-22T05:51:03.073Z,13.98
2022-08-22T05:52:03.056Z,14.02
2022-08-22T05:53:03.094Z,14.06
2022-08-22T05:54:03.034Z,14.13
2022-08-22T05:55:03.021Z,14.19
2022-08-22T05:56:03.011Z,14.24
2022-08-22T05:57:07.366Z,14.29
2022-08-22T05:58:03.021Z,14.31
2022-08-22T05:59:03.012Z,14.38
2022-08-22T06:00:03.011Z,14.42
2022-08-22T06:01:02.955Z,14.45
2022-08-22T06:02:03.042Z,14.52
2022-08-22T06:03:02.960Z,14.57
2022-08-22T06:04:02.944Z,14.63
2022-08-22T06:05:02.920Z,14.66
2022-08-22T06:06:02.910Z,14.72
2022-08-22T06:07:02.889Z,14.79
2022-08-22T06:08:03.887Z,14.82
2022-08-22T06:09:02.894Z,14.87
2022-08-22T06:10:02.862Z,14.97
2022-08-22T06:11:02.856Z,15.00
2022-08-22T06:12:02.855Z,15.11
2022-08-22T06:13:02.831Z,15.18
2022-08-22T06:14:02.852Z,15.28
2022-08-22T06:15:02.831Z,15.34
2022-08-22T06:16:02.815Z,15.41
2022-08-22T06:17:02.833Z,15.46
2022-08-22T06:18:02.778Z,15.51
2022-08-22T06:19:02.765Z,15.60
2022-08-22T06:20:02.751Z,15.68
2022-08-22T06:21:02.750Z,15.76
2022-08-22T06:22:02.756Z,15.78
2022-08-22T06:23:02.725Z,15.81
2022-08-22T06:24:02.717Z,15.86
2022-08-22T06:25:02.701Z,15.91
2022-08-22T06:26:02.689Z,15.98
2022-08-22T06:27:02.710Z,15.99
2022-08-22T06:28:02.747Z,15.98
2022-08-22T06:29:02.675Z,15.93
2022-08-22T06:30:03.199Z,15.93
2022-08-22T06:31:02.644Z,15.95
2022-08-22T06:32:02.631Z,16.01
2022-08-22T06:33:02.653Z,16.06
2022-08-22T06:34:02.620Z,16.08
2022-08-22T06:35:02.602Z,16.14
2022-08-22T06:36:02.583Z,16.25
2022-08-22T06:37:02.584Z,16.32
2022-08-22T06:38:02.593Z,16.42
2022-08-22T06:39:02.552Z,16.52
2022-08-22T06:40:02.625Z,16.60
2022-08-22T06:41:02.537Z,16.67
2022-08-22T06:42:02.625Z,16.77
2022-08-22T06:43:02.511Z,16.78
2022-08-22T06:44:02.566Z,16.82
2022-08-22T06:45:02.489Z,16.88
2022-08-22T06:46:02.486Z,16.96
2022-08-22T06:47:02.468Z,17.00
2022-08-22T06:48:02.698Z,17.03
2022-08-22T06:49:02.465Z,17.12
2022-08-22T06:50:02.471Z,17.21
2022-08-22T06:51:02.443Z,17.27
2022-08-22T06:52:02.457Z,17.30
2022-08-22T06:53:02.411Z,17.40
2022-08-22T06:54:02.403Z,17.39
2022-08-22T06:55:02.440Z,17.38
2022-08-22T06:56:02.380Z,17.38
2022-08-22T06:57:02.459Z,17.39
2022-08-22T06:58:02.354Z,17.42
2022-08-22T06:59:02.341Z,17.47
2022-08-22T07:00:02.377Z,17.57
2022-08-22T07:01:11.107Z,17.57
2022-08-22T07:02:02.398Z,17.68
2022-08-22T07:03:02.309Z,17.74
2022-08-22T07:04:02.282Z,17.87
2022-08-22T07:05:02.281Z,17.99
2022-08-22T07:06:02.271Z,18.07
2022-08-22T07:07:02.281Z,18.14
2022-08-22T07:08:02.249Z,18.20
2022-08-22T07:09:06.255Z,18.21
2022-08-22T07:10:02.219Z,18.26
2022-08-22T07:11:02.219Z,18.29
2022-08-22T07:12:02.204Z,18.36
2022-08-22T07:13:02.216Z,18.50
2022-08-22T07:14:02.188Z,18.57
2022-08-22T07:15:02.176Z,18.57
2022-08-22T07:16:02.161Z,18.56
2022-08-22T07:17:02.152Z,18.53
2022-08-22T07:18:02.154Z,18.42
2022-08-22T07:19:02.158Z,18.32
2022-08-22T07:20:02.116Z,18.26
2022-08-22T07:21:02.112Z,18.23
2022-08-22T07:22:02.105Z,18.21
2022-08-22T07:23:02.109Z,18.21
2022-08-22T07:24:02.099Z,18.19
2022-08-22T07:25:02.073Z,18.16
2022-08-22T07:26:02.079Z,18.16
2022-08-22T07:27:02.043Z,18.16
2022-08-22T07:28:03.873Z,18.17
2022-08-22T07:29:02.022Z,18.25
2022-08-22T07:30:02.042Z,18.26
2022-08-22T07:31:01.997Z,18.32
2022-08-22T07:32:01.995Z,18.36
2022-08-22T07:33:25.752Z,18.41
2022-08-22T07:34:01.973Z,18.47
2022-08-22T07:35:02.011Z,18.60
2022-08-22T07:36:01.973Z,18.79
2022-08-22T07:37:01.954Z,18.91
2022-08-22T07:38:01.925Z,19.01
2022-08-22T07:39:01.930Z,19.10
2022-08-22T07:40:01.967Z,19.12
2022-08-22T07:41:01.913Z,19.13
2022-08-22T07:42:01.899Z,19.12
2022-08-22T07:43:01.876Z,19.15
2022-08-22T07:44:01.879Z,19.17
2022-08-22T07:45:02.684Z,19.28
2022-08-22T07:46:01.868Z,19.34
2022-08-22T07:47:01.846Z,19.27
2022-08-22T07:48:01.905Z,19.23
2022-08-22T07:49:10.001Z,19.25
2022-08-22T07:50:01.850Z,19.23
2022-08-22T07:51:01.818Z,19.27
2022-08-22T07:52:01.777Z,19.35
2022-08-22T07:53:01.824Z,19.49
2022-08-22T07:54:01.754Z,19.61
2022-08-22T07:55:01.748Z,19.65
2022-08-22T07:56:01.734Z,19.70
2022-08-22T07:57:01.747Z,19.71
2022-08-22T07:58:01.738Z,19.67
2022-08-22T07:59:01.712Z,19.67
2022-08-22T08:00:01.689Z,19.67
2022-08-22T08:01:01.695Z,19.64
2022-08-22T08:02:01.693Z,19.62
2022-08-22T08:03:01.693Z,19.61
2022-08-22T08:04:01.646Z,19.60
2022-08-22T08:05:01.645Z,19.62
2022-08-22T08:06:01.629Z,19.68
2022-08-22T08:07:01.631Z,19.75
2022-08-22T08:08:01.659Z,19.89
2022-08-22T08:09:01.625Z,20.04
2022-08-22T08:10:01.592Z,20.19
2022-08-22T08:11:01.578Z,20.31
2022-08-22T08:12:01.589Z,20.44
2022-08-22T08:13:02.156Z,20.44
2022-08-22T08:14:01.563Z,20.41
2022-08-22T08:15:01.671Z,20.38
2022-08-22T08:16:01.544Z,20.31
2022-08-22T08:17:01.521Z,20.22
2022-08-22T08:18:01.499Z,20.16
2022-08-22T08:19:01.496Z,20.15
2022-08-22T08:20:01.484Z,20.16
2022-08-22T08:21:01.493Z,20.13
2022-08-22T08:22:01.468Z,20.10
2022-08-22T08:23:01.453Z,20.12
2022-08-22T08:24:01.436Z,20.13
2022-08-22T08:25:01.431Z,20.20
2022-08-22T08:26:01.440Z,20.34
2022-08-22T08:27:01.408Z,20.48
2022-08-22T08:28:01.526Z,20.69
2022-08-22T08:29:01.392Z,20.93
2022-08-22T08:30:01.371Z,21.06
2022-08-22T08:31:01.366Z,21.15
2022-08-22T08:32:01.383Z,21.13
2022-08-22T08:33:25.972Z,21.16
2022-08-22T08:34:01.338Z,21.15
2022-08-22T08:35:01.324Z,21.13
2022-08-22T08:36:03.253Z,21.11
2022-08-22T08:37:01.310Z,21.06
2022-08-22T08:38:01.296Z,21.05
2022-08-22T08:39:01.280Z,21.18
2022-08-22T08:40:01.366Z,21.30
2022-08-22T08:41:01.262Z,21.43
2022-08-22T08:42:01.270Z,21.52
2022-08-22T08:43:01.240Z,21.51
2022-08-22T08:44:01.223Z,21.52
2022-08-22T08:45:01.214Z,21.58
2022-08-22T08:46:01.206Z,21.66
2022-08-22T08:47:01.219Z,21.74
2022-08-22T08:48:01.440Z,21.73
2022-08-22T08:49:01.175Z,21.77
2022-08-22T08:50:01.167Z,21.83
2022-08-22T09:40:15.239Z,21.91
2022-08-22T09:40:30.211Z,24.46
2022-08-22T09:41:30.153Z,24.68
2022-08-22T09:42:30.141Z,24.80
2022-08-22T09:43:30.136Z,25.07
2022-08-22T09:44:30.118Z,25.20
2022-08-22T09:45:30.148Z,25.29
2022-08-22T09:46:32.073Z,25.29
2022-08-22T09:47:32.777Z,25.36
2022-08-22T09:48:30.077Z,25.56
2022-08-22T09:49:30.067Z,25.69
2022-08-22T09:50:30.064Z,25.69
2022-08-22T09:51:32.676Z,25.54
2022-08-22T09:52:30.057Z,25.56
2022-08-22T09:53:30.043Z,25.60
2022-08-22T09:54:31.654Z,25.63
2022-08-22T09:55:35.516Z,25.76
2022-08-22T09:56:30.002Z,25.82
2022-08-22T09:57:30.036Z,25.67
2022-08-22T09:58:29.998Z,25.72
2022-08-22T09:59:29.966Z,25.76
2022-08-22T10:00:29.960Z,25.81
2022-08-22T10:01:32.763Z,25.81
2022-08-22T10:02:30.125Z,25.75
2022-08-22T10:03:30.475Z,25.78
2022-08-22T10:04:29.911Z,25.85
2022-08-22T10:05:41.319Z,25.83
2022-08-22T10:06:29.901Z,25.94
2022-08-22T10:07:29.877Z,26.04
2022-08-22T10:08:29.902Z,26.11
2022-08-22T10:09:31.982Z,26.09
2022-08-22T10:10:29.856Z,25.91
2022-08-22T10:11:29.846Z,25.85
2022-08-22T10:12:35.154Z,25.94
2022-08-22T10:13:29.826Z,26.13
2022-08-22T10:14:29.837Z,26.27
2022-08-22T10:15:29.837Z,26.27
2022-08-22T10:16:29.796Z,26.13
2022-08-22T10:17:29.785Z,26.16
2022-08-22T10:18:29.778Z,26.21
2022-08-22T10:19:29.758Z,26.28
2022-08-22T10:20:29.783Z,26.23
2022-08-22T10:21:29.738Z,26.34
2022-08-22T10:22:30.914Z,26.59
2022-08-22T10:23:29.742Z,26.73
2022-08-22T10:24:29.719Z,26.86
2022-08-22T10:25:29.756Z,26.90
2022-08-22T10:26:29.723Z,27.02
2022-08-22T10:27:29.689Z,27.02
2022-08-22T10:28:29.681Z,26.87
2022-08-22T10:29:29.687Z,26.81
2022-08-22T10:30:29.661Z,26.97
2022-08-22T10:31:29.654Z,27.01
2022-08-22T10:32:29.653Z,27.06
2022-08-22T10:33:29.658Z,27.11
2022-08-22T10:34:29.675Z,26.86
2022-08-22T10:35:33.739Z,26.65
2022-08-22T10:36:29.592Z,26.57
2022-08-22T10:37:29.614Z,26.50
2022-08-22T10:38:29.566Z,26.54
2022-08-22T10:39:29.587Z,26.79
2022-08-22T10:40:29.547Z,26.94
2022-08-22T10:41:29.548Z,27.05
2022-08-22T10:42:34.968Z,27.11
2022-08-22T10:43:29.551Z,27.16
2022-08-22T10:44:29.527Z,27.13
2022-08-22T10:45:36.669Z,27.23
2022-08-22T10:46:29.497Z,27.33
2022-08-22T10:47:29.478Z,27.40
2022-08-22T10:48:29.471Z,27.35
2022-08-22T10:49:29.488Z,27.43
2022-08-22T10:50:31.052Z,27.40
2022-08-22T10:51:29.428Z,27.40
2022-08-22T10:52:29.451Z,27.48
2022-08-22T10:53:29.694Z,27.50
2022-08-22T10:54:29.406Z,27.50
2022-08-22T10:55:29.389Z,27.50
2022-08-22T10:56:29.385Z,27.50
2022-08-22T10:57:29.397Z,27.62
2022-08-22T10:58:29.400Z,27.69
2022-08-22T10:59:29.335Z,27.63
2022-08-22T11:00:29.346Z,27.59
2022-08-22T11:01:37.553Z,27.61
2022-08-22T11:02:29.321Z,27.71
2022-08-22T11:03:29.361Z,27.53
2022-08-22T11:04:29.297Z,27.30
2022-08-22T11:05:29.276Z,27.35
2022-08-22T11:06:29.267Z,27.59
2022-08-22T11:07:29.287Z,27.72
2022-08-22T11:08:29.246Z,27.91
2022-08-22T11:09:31.190Z,28.15
2022-08-22T11:10:29.234Z,28.30
2022-08-22T11:11:32.523Z,28.43
2022-08-22T11:12:35.121Z,28.36
2022-08-22T11:13:29.305Z,28.42
2022-08-22T11:14:29.191Z,28.32
2022-08-22T11:15:35.117Z,28.15
2022-08-22T11:16:29.171Z,28.01
2022-08-22T11:17:32.502Z,27.98
2022-08-22T11:18:30.431Z,27.83
2022-08-22T11:19:29.152Z,27.93
2022-08-22T11:20:29.120Z,28.32
2022-08-22T11:21:29.119Z,28.67
2022-08-22T11:22:29.158Z,28.80
2022-08-22T11:23:29.089Z,28.57
2022-08-22T11:24:35.726Z,28.57
2022-08-22T11:25:35.747Z,28.39
2022-08-22T11:26:33.630Z,28.32
2022-08-22T11:27:39.498Z,28.42
2022-08-22T11:28:29.066Z,28.45
2022-08-22T11:29:29.028Z,28.60
2022-08-22T11:30:29.042Z,28.51
2022-08-22T11:31:31.796Z,28.52
2022-08-22T11:32:29.000Z,28.62
2022-08-22T11:33:33.825Z,28.74
2022-08-22T11:34:28.982Z,29.02
2022-08-22T11:35:28.997Z,29.44
2022-08-22T11:36:30.887Z,29.23
2022-08-22T11:37:42.692Z,29.35
2022-08-22T11:38:32.849Z,29.44
2022-08-22T11:39:28.925Z,29.51
2022-08-22T11:40:28.946Z,29.55
2022-08-22T11:41:28.933Z,29.35
2022-08-22T11:42:29.643Z,29.15
2022-08-22T11:43:28.883Z,29.20
2022-08-22T11:44:28.868Z,29.10
2022-08-22T11:45:28.861Z,29.20
2022-08-22T11:46:28.894Z,29.39
2022-08-22T11:47:29.102Z,29.33
2022-08-22T11:48:28.830Z,29.64
2022-08-22T11:49:31.622Z,29.82
2022-08-22T11:50:28.803Z,29.94
2022-08-22T11:51:28.842Z,29.92
2022-08-22T11:52:28.817Z,29.97
2022-08-22T11:53:28.798Z,29.89
2022-08-22T11:54:31.491Z,30.23
2022-08-22T11:55:33.006Z,29.99
2022-08-22T11:56:28.749Z,29.84
2022-08-22T11:57:28.740Z,29.94
2022-08-22T11:58:29.406Z,29.74
2022-08-22T11:59:28.734Z,29.66
2022-08-22T12:00:28.700Z,29.57
2022-08-22T12:01:34.225Z,29.51
2022-08-22T12:02:28.830Z,29.62
2022-08-22T12:03:28.686Z,29.82
2022-08-22T12:04:28.718Z,29.95
2022-08-22T12:05:28.653Z,29.91
2022-08-22T12:06:28.661Z,30.06
2022-08-22T12:07:28.647Z,30.13
2022-08-22T12:08:28.620Z,29.92
2022-08-22T12:09:29.761Z,29.54
2022-08-22T12:10:28.628Z,29.66
2022-08-22T12:11:28.613Z,29.91
2022-08-22T12:12:28.582Z,30.18
2022-08-22T12:13:34.798Z,30.34
2022-08-22T12:14:28.589Z,30.45
2022-08-22T12:15:28.563Z,30.26
2022-08-22T12:16:28.541Z,30.18
2022-08-22T12:17:55.916Z,30.03
2022-08-22T12:18:28.525Z,29.91
2022-08-22T12:19:32.670Z,29.82
2022-08-22T12:20:28.503Z,29.57
2022-08-22T12:21:28.507Z,29.32
2022-08-22T12:22:28.816Z,29.08
2022-08-22T12:23:43.210Z,29.12
2022-08-22T12:24:28.494Z,29.29
2022-08-22T12:25:28.473Z,29.42
2022-08-22T12:26:28.478Z,29.15
2022-08-22T12:27:29.375Z,29.12
2022-08-22T12:28:28.427Z,29.54
2022-08-22T12:29:34.082Z,29.81
2022-08-22T12:30:28.421Z,30.03
2022-08-22T12:31:28.412Z,30.26
2022-08-22T12:32:28.451Z,30.18
2022-08-22T12:33:28.376Z,29.99
2022-08-22T12:34:28.362Z,29.79
2022-08-22T12:35:30.300Z,29.42
2022-08-22T12:36:28.335Z,29.29
2022-08-22T12:37:28.364Z,29.12
2022-08-22T12:38:30.648Z,29.18
2022-08-22T12:39:28.315Z,29.07
2022-08-22T12:40:28.346Z,29.27
2022-08-22T12:41:35.255Z,29.18
2022-08-22T12:42:28.320Z,28.85
2022-08-22T12:43:28.270Z,29.05
2022-08-22T12:44:28.265Z,29.00
2022-08-22T12:45:28.252Z,29.08
2022-08-22T12:46:28.890Z,29.45
2022-08-22T12:47:28.251Z,29.88
2022-08-22T12:48:28.210Z,30.19
2022-08-22T12:49:28.204Z,30.38
2022-08-22T12:50:28.218Z,30.44
2022-08-22T12:51:29.419Z,30.59
2022-08-22T12:52:28.225Z,30.96
2022-08-22T12:53:28.341Z,31.13
2022-08-22T12:54:28.203Z,30.97
2022-08-22T12:55:28.141Z,31.01
2022-08-22T12:56:28.136Z,30.46
2022-08-22T12:57:28.139Z,29.94
2022-08-22T12:58:33.090Z,29.63
2022-08-22T12:59:28.112Z,29.52
2022-08-22T13:00:29.465Z,29.57
2022-08-22T13:01:34.372Z,29.51
2022-08-22T13:02:28.070Z,29.67
2022-08-22T13:03:28.066Z,29.95
2022-08-22T13:04:32.990Z,30.32
2022-08-22T13:05:28.049Z,30.67
2022-08-22T13:06:34.555Z,30.72
2022-08-22T13:07:28.035Z,30.66
2022-08-22T13:08:28.005Z,30.66
2022-08-22T13:09:28.902Z,30.63
2022-08-22T13:10:28.016Z,30.49
2022-08-22T13:11:27.989Z,30.34
2022-08-22T13:12:27.966Z,30.22
2022-08-22T13:13:31.673Z,29.91
2022-08-22T13:14:27.957Z,30.15
2022-08-22T13:15:27.946Z,30.38
2022-08-22T13:16:27.946Z,30.64
2022-08-22T13:17:27.922Z,30.61
2022-08-22T13:18:29.805Z,30.26
2022-08-22T13:19:27.898Z,30.08
2022-08-22T13:20:27.897Z,29.82
2022-08-22T13:21:31.558Z,29.54
2022-08-22T13:22:29.088Z,29.20
2022-08-22T13:23:27.946Z,28.88
2022-08-22T13:24:38.677Z,28.74
2022-08-22T13:25:27.842Z,28.69
2022-08-22T13:26:33.181Z,28.64
2022-08-22T13:27:29.806Z,28.36
2022-08-22T13:28:27.824Z,28.23
2022-08-22T13:29:39.362Z,28.17
2022-08-22T13:30:27.784Z,28.11
2022-08-22T13:31:27.781Z,27.99
2022-08-22T13:32:27.851Z,28.09
2022-08-22T13:33:27.790Z,28.27
2022-08-22T13:34:27.742Z,28.23
2022-08-22T13:35:27.740Z,28.14
2022-08-22T13:36:27.745Z,28.13
2022-08-22T13:37:27.719Z,28.18
2022-08-22T13:38:27.712Z,28.28
2022-08-22T13:39:27.714Z,28.50
2022-08-22T13:40:27.727Z,28.69
2022-08-22T13:41:27.671Z,29.14
2022-08-22T13:42:30.172Z,29.58
2022-08-22T13:43:27.683Z,29.91